sensor_id;sensor_type;location;lat;lon;timestamp;P1;P2;P0
80420;PMS5003;69762;54.858;73.420;2023-05-07T00:00:58;40.50;33.00;22.75
80420;PMS5003;69762;54.858;73.420;2023-05-07T00:03:25;43.75;35.00;23.00
80420;PMS5003;69762;54.858;73.420;2023-05-07T00:05:52;43.50;34.25;23.00
80420;PMS5003;69762;54.858;73.420;2023-05-07T00:08:21;46.75;36.50;23.75
80420;PMS5003;69762;54.858;73.420;2023-05-07T00:10:47;45.00;35.75;23.75
80420;PMS5003;69762;54.858;73.420;2023-05-07T00:13:14;53.75;41.75;27.75
80420;PMS5003;69762;54.858;73.420;2023-05-07T00:15:40;56.50;43.50;27.50
80420;PMS5003;69762;54.858;73.420;2023-05-07T00:18:06;56.50;42.50;28.50
80420;PMS5003;69762;54.858;73.420;2023-05-07T00:20:32;55.50;43.25;27.75
80420;PMS5003;69762;54.858;73.420;2023-05-07T00:22:58;63.50;48.00;31.50
80420;PMS5003;69762;54.858;73.420;2023-05-07T00:25:25;65.25;48.75;31.50
80420;PMS5003;69762;54.858;73.420;2023-05-07T00:27:51;59.75;45.50;29.75
80420;PMS5003;69762;54.858;73.420;2023-05-07T00:30:17;57.50;43.75;28.50
80420;PMS5003;69762;54.858;73.420;2023-05-07T00:32:43;54.25;43.25;29.00
80420;PMS5003;69762;54.858;73.420;2023-05-07T00:35:11;59.25;45.00;29.75
80420;PMS5003;69762;54.858;73.420;2023-05-07T00:37:37;57.50;43.25;28.00
80420;PMS5003;69762;54.858;73.420;2023-05-07T00:40:03;50.25;38.25;26.00
80420;PMS5003;69762;54.858;73.420;2023-05-07T00:42:32;45.25;35.00;22.25
80420;PMS5003;69762;54.858;73.420;2023-05-07T00:44:58;40.75;32.00;21.75
80420;PMS5003;69762;54.858;73.420;2023-05-07T00:47:25;40.50;31.50;21.00
80420;PMS5003;69762;54.858;73.420;2023-05-07T00:49:51;40.25;31.00;21.00
80420;PMS5003;69762;54.858;73.420;2023-05-07T00:52:17;45.75;36.50;24.25
80420;PMS5003;69762;54.858;73.420;2023-05-07T00:54:45;55.00;40.00;27.00
80420;PMS5003;69762;54.858;73.420;2023-05-07T00:57:11;55.00;42.00;28.00
80420;PMS5003;69762;54.858;73.420;2023-05-07T00:59:37;45.00;34.75;23.50
80420;PMS5003;69762;54.858;73.420;2023-05-07T01:02:04;45.50;35.50;22.75
80420;PMS5003;69762;54.858;73.420;2023-05-07T01:04:30;39.50;32.75;22.00
80420;PMS5003;69762;54.858;73.420;2023-05-07T01:06:56;37.50;29.50;19.00
80420;PMS5003;69762;54.858;73.420;2023-05-07T01:09:23;30.00;25.25;17.50
80420;PMS5003;69762;54.858;73.420;2023-05-07T01:11:51;35.25;26.25;18.00
80420;PMS5003;69762;54.858;73.420;2023-05-07T01:14:18;30.50;25.00;17.00
80420;PMS5003;69762;54.858;73.420;2023-05-07T01:16:46;28.00;23.00;15.00
80420;PMS5003;69762;54.858;73.420;2023-05-07T01:19:13;32.00;25.00;17.00
80420;PMS5003;69762;54.858;73.420;2023-05-07T01:21:46;24.50;21.00;15.00
80420;PMS5003;69762;54.858;73.420;2023-05-07T01:24:14;28.75;23.00;16.00
80420;PMS5003;69762;54.858;73.420;2023-05-07T01:26:41;28.50;23.00;15.50
80420;PMS5003;69762;54.858;73.420;2023-05-07T01:29:07;30.00;23.00;16.00
80420;PMS5003;69762;54.858;73.420;2023-05-07T01:31:34;28.00;23.00;16.50
80420;PMS5003;69762;54.858;73.420;2023-05-07T01:34:01;27.50;23.00;15.50
80420;PMS5003;69762;54.858;73.420;2023-05-07T01:36:27;29.00;23.50;16.00
80420;PMS5003;69762;54.858;73.420;2023-05-07T01:38:55;26.00;22.50;16.00
80420;PMS5003;69762;54.858;73.420;2023-05-07T01:41:24;26.00;20.50;14.25
80420;PMS5003;69762;54.858;73.420;2023-05-07T01:43:51;27.50;22.00;16.00
80420;PMS5003;69762;54.858;73.420;2023-05-07T01:46:18;24.75;20.25;14.00
80420;PMS5003;69762;54.858;73.420;2023-05-07T01:48:45;26.50;22.00;15.00
80420;PMS5003;69762;54.858;73.420;2023-05-07T01:51:12;24.25;20.75;14.00
80420;PMS5003;69762;54.858;73.420;2023-05-07T01:53:38;25.25;22.00;15.00
80420;PMS5003;69762;54.858;73.420;2023-05-07T01:56:06;26.75;22.00;15.00
80420;PMS5003;69762;54.858;73.420;2023-05-07T01:58:34;25.50;21.00;14.00
80420;PMS5003;69762;54.858;73.420;2023-05-07T02:01:01;24.75;20.75;14.00
80420;PMS5003;69762;54.858;73.420;2023-05-07T02:03:27;25.00;21.00;14.00
80420;PMS5003;69762;54.858;73.420;2023-05-07T02:06:03;24.00;21.00;15.00
80420;PMS5003;69762;54.858;73.420;2023-05-07T02:08:35;24.50;20.75;14.75
80420;PMS5003;69762;54.858;73.420;2023-05-07T02:11:01;25.75;21.00;15.00
80420;PMS5003;69762;54.858;73.420;2023-05-07T02:13:29;26.00;21.25;13.50
80420;PMS5003;69762;54.858;73.420;2023-05-07T02:15:56;28.00;22.75;15.00
80420;PMS5003;69762;54.858;73.420;2023-05-07T02:18:23;25.00;21.25;14.25
80420;PMS5003;69762;54.858;73.420;2023-05-07T02:20:49;22.00;19.00;14.00
80420;PMS5003;69762;54.858;73.420;2023-05-07T02:23:16;25.25;20.00;13.00
80420;PMS5003;69762;54.858;73.420;2023-05-07T02:25:42;24.25;20.00;14.00
80420;PMS5003;69762;54.858;73.420;2023-05-07T02:28:08;24.25;21.00;14.75
80420;PMS5003;69762;54.858;73.420;2023-05-07T02:30:53;25.00;21.00;14.75
80420;PMS5003;69762;54.858;73.420;2023-05-07T02:33:20;24.00;21.00;16.00
80420;PMS5003;69762;54.858;73.420;2023-05-07T02:35:46;26.75;22.50;15.00
80420;PMS5003;69762;54.858;73.420;2023-05-07T02:38:23;24.50;20.75;14.50
80420;PMS5003;69762;54.858;73.420;2023-05-07T02:40:49;26.00;22.00;14.75
80420;PMS5003;69762;54.858;73.420;2023-05-07T02:43:16;23.00;19.50;15.00
80420;PMS5003;69762;54.858;73.420;2023-05-07T02:45:45;24.50;20.50;14.00
80420;PMS5003;69762;54.858;73.420;2023-05-07T02:48:12;25.75;22.00;14.50
80420;PMS5003;69762;54.858;73.420;2023-05-07T02:50:38;24.25;21.00;14.00
80420;PMS5003;69762;54.858;73.420;2023-05-07T02:53:04;26.00;21.50;14.50
80420;PMS5003;69762;54.858;73.420;2023-05-07T02:55:30;26.25;20.25;14.25
80420;PMS5003;69762;54.858;73.420;2023-05-07T02:57:56;22.25;18.75;13.00
80420;PMS5003;69762;54.858;73.420;2023-05-07T03:00:23;24.75;20.25;13.00
80420;PMS5003;69762;54.858;73.420;2023-05-07T03:03:10;21.00;19.00;12.00
80420;PMS5003;69762;54.858;73.420;2023-05-07T03:05:36;24.00;21.00;13.00
80420;PMS5003;69762;54.858;73.420;2023-05-07T03:08:03;21.75;18.75;13.00
80420;PMS5003;69762;54.858;73.420;2023-05-07T03:10:30;20.00;17.25;12.25
80420;PMS5003;69762;54.858;73.420;2023-05-07T03:12:56;20.00;17.00;11.75
80420;PMS5003;69762;54.858;73.420;2023-05-07T03:15:22;21.50;18.50;13.00
80420;PMS5003;69762;54.858;73.420;2023-05-07T03:17:48;19.75;16.75;11.00
80420;PMS5003;69762;54.858;73.420;2023-05-07T03:20:14;17.25;15.00;11.00
80420;PMS5003;69762;54.858;73.420;2023-05-07T03:22:41;17.00;15.00;10.50
80420;PMS5003;69762;54.858;73.420;2023-05-07T03:25:08;18.00;14.00;9.00
80420;PMS5003;69762;54.858;73.420;2023-05-07T03:27:35;15.75;13.00;10.00
80420;PMS5003;69762;54.858;73.420;2023-05-07T03:30:01;18.75;14.50;10.00
80420;PMS5003;69762;54.858;73.420;2023-05-07T03:32:27;16.00;13.00;9.00
80420;PMS5003;69762;54.858;73.420;2023-05-07T03:34:53;16.00;14.00;10.00
80420;PMS5003;69762;54.858;73.420;2023-05-07T03:37:20;14.00;12.00;8.00
80420;PMS5003;69762;54.858;73.420;2023-05-07T03:39:47;48.25;40.25;29.00
80420;PMS5003;69762;54.858;73.420;2023-05-07T03:42:14;15.00;12.00;8.00
80420;PMS5003;69762;54.858;73.420;2023-05-07T03:44:41;12.00;11.00;8.00
80420;PMS5003;69762;54.858;73.420;2023-05-07T03:47:07;12.00;11.00;7.00
80420;PMS5003;69762;54.858;73.420;2023-05-07T03:49:34;13.00;11.00;7.25
80420;PMS5003;69762;54.858;73.420;2023-05-07T03:52:00;15.00;13.00;10.00
80420;PMS5003;69762;54.858;73.420;2023-05-07T03:54:26;13.25;11.00;8.00
80420;PMS5003;69762;54.858;73.420;2023-05-07T03:56:53;15.25;13.00;9.00
80420;PMS5003;69762;54.858;73.420;2023-05-07T03:59:19;14.00;13.00;9.00
80420;PMS5003;69762;54.858;73.420;2023-05-07T04:01:46;13.00;11.00;8.00
80420;PMS5003;69762;54.858;73.420;2023-05-07T04:04:16;12.25;9.00;7.00
80420;PMS5003;69762;54.858;73.420;2023-05-07T04:06:42;12.00;10.25;7.25
80420;PMS5003;69762;54.858;73.420;2023-05-07T04:09:09;11.00;9.50;7.00
80420;PMS5003;69762;54.858;73.420;2023-05-07T04:11:37;10.00;9.00;7.00
80420;PMS5003;69762;54.858;73.420;2023-05-07T04:14:03;8.00;8.00;6.00
80420;PMS5003;69762;54.858;73.420;2023-05-07T04:16:30;6.75;6.50;5.00
80420;PMS5003;69762;54.858;73.420;2023-05-07T04:18:56;8.00;7.00;5.00
80420;PMS5003;69762;54.858;73.420;2023-05-07T04:21:22;9.00;8.00;7.00
80420;PMS5003;69762;54.858;73.420;2023-05-07T04:23:50;11.00;9.00;7.00
80420;PMS5003;69762;54.858;73.420;2023-05-07T04:26:16;12.00;10.00;7.00
80420;PMS5003;69762;54.858;73.420;2023-05-07T04:28:43;10.00;8.75;6.00
80420;PMS5003;69762;54.858;73.420;2023-05-07T04:31:10;10.00;9.00;6.00
80420;PMS5003;69762;54.858;73.420;2023-05-07T04:33:37;7.00;6.00;4.00
80420;PMS5003;69762;54.858;73.420;2023-05-07T04:36:04;7.00;6.00;4.00
80420;PMS5003;69762;54.858;73.420;2023-05-07T04:38:35;9.00;7.00;5.00
80420;PMS5003;69762;54.858;73.420;2023-05-07T04:41:03;7.00;6.00;5.00
80420;PMS5003;69762;54.858;73.420;2023-05-07T04:43:30;7.00;6.00;5.00
80420;PMS5003;69762;54.858;73.420;2023-05-07T04:45:56;8.00;7.00;5.00
80420;PMS5003;69762;54.858;73.420;2023-05-07T04:48:25;6.00;6.00;4.00
80420;PMS5003;69762;54.858;73.420;2023-05-07T04:50:53;7.00;6.00;5.00
80420;PMS5003;69762;54.858;73.420;2023-05-07T04:53:20;7.00;6.25;5.00
80420;PMS5003;69762;54.858;73.420;2023-05-07T04:55:48;5.00;5.00;4.00
80420;PMS5003;69762;54.858;73.420;2023-05-07T04:58:14;6.00;5.00;4.00
80420;PMS5003;69762;54.858;73.420;2023-05-07T05:00:43;10.25;8.00;5.00
80420;PMS5003;69762;54.858;73.420;2023-05-07T05:03:09;7.00;6.00;5.00
80420;PMS5003;69762;54.858;73.420;2023-05-07T05:05:38;7.50;7.00;5.00
80420;PMS5003;69762;54.858;73.420;2023-05-07T05:08:05;7.00;6.00;4.00
80420;PMS5003;69762;54.858;73.420;2023-05-07T05:10:34;5.75;5.00;4.00
80420;PMS5003;69762;54.858;73.420;2023-05-07T05:13:00;7.00;7.00;5.00
80420;PMS5003;69762;54.858;73.420;2023-05-07T05:15:27;8.00;7.00;5.00
80420;PMS5003;69762;54.858;73.420;2023-05-07T05:17:54;23.00;19.75;14.00
80420;PMS5003;69762;54.858;73.420;2023-05-07T05:20:20;8.00;7.00;5.00
80420;PMS5003;69762;54.858;73.420;2023-05-07T05:22:48;7.00;6.00;4.00
80420;PMS5003;69762;54.858;73.420;2023-05-07T05:25:14;6.00;6.00;4.00
80420;PMS5003;69762;54.858;73.420;2023-05-07T05:27:41;6.00;5.00;4.00
80420;PMS5003;69762;54.858;73.420;2023-05-07T05:30:07;6.50;6.25;4.50
80420;PMS5003;69762;54.858;73.420;2023-05-07T05:32:34;6.50;6.00;4.00
80420;PMS5003;69762;54.858;73.420;2023-05-07T05:35:01;9.75;8.00;5.00
80420;PMS5003;69762;54.858;73.420;2023-05-07T05:37:28;7.25;7.00;5.00
80420;PMS5003;69762;54.858;73.420;2023-05-07T05:39:56;6.00;6.00;4.75
80420;PMS5003;69762;54.858;73.420;2023-05-07T05:42:23;6.00;6.00;4.00
80420;PMS5003;69762;54.858;73.420;2023-05-07T05:44:49;8.00;7.00;5.00
80420;PMS5003;69762;54.858;73.420;2023-05-07T05:47:15;5.00;5.00;4.00
80420;PMS5003;69762;54.858;73.420;2023-05-07T05:49:41;6.00;6.00;4.00
80420;PMS5003;69762;54.858;73.420;2023-05-07T05:52:11;8.00;7.00;5.00
80420;PMS5003;69762;54.858;73.420;2023-05-07T05:54:37;9.00;8.25;6.00
80420;PMS5003;69762;54.858;73.420;2023-05-07T05:57:04;6.00;5.00;4.00
80420;PMS5003;69762;54.858;73.420;2023-05-07T05:59:30;7.00;6.00;4.00
80420;PMS5003;69762;54.858;73.420;2023-05-07T06:01:57;7.00;6.00;4.00
80420;PMS5003;69762;54.858;73.420;2023-05-07T06:04:23;6.00;6.00;4.00
80420;PMS5003;69762;54.858;73.420;2023-05-07T06:06:50;6.00;5.00;4.00
80420;PMS5003;69762;54.858;73.420;2023-05-07T06:09:16;7.00;7.00;4.50
80420;PMS5003;69762;54.858;73.420;2023-05-07T06:11:43;9.00;8.00;5.25
80420;PMS5003;69762;54.858;73.420;2023-05-07T06:14:11;9.00;7.25;5.00
80420;PMS5003;69762;54.858;73.420;2023-05-07T06:16:38;7.00;7.00;4.00
80420;PMS5003;69762;54.858;73.420;2023-05-07T06:19:06;11.00;9.75;7.00
80420;PMS5003;69762;54.858;73.420;2023-05-07T06:21:32;9.25;7.00;5.00
80420;PMS5003;69762;54.858;73.420;2023-05-07T06:23:58;7.00;6.25;4.50
80420;PMS5003;69762;54.858;73.420;2023-05-07T06:26:24;7.00;6.00;4.00
80420;PMS5003;69762;54.858;73.420;2023-05-07T06:28:52;7.00;6.00;5.00
80420;PMS5003;69762;54.858;73.420;2023-05-07T06:31:18;6.00;5.00;4.00
80420;PMS5003;69762;54.858;73.420;2023-05-07T06:33:55;5.00;5.00;4.00
80420;PMS5003;69762;54.858;73.420;2023-05-07T06:36:26;5.00;5.00;4.00
80420;PMS5003;69762;54.858;73.420;2023-05-07T06:38:55;6.00;5.00;4.00
80420;PMS5003;69762;54.858;73.420;2023-05-07T06:41:22;7.00;6.00;4.75
80420;PMS5003;69762;54.858;73.420;2023-05-07T06:43:48;7.00;6.75;5.00
80420;PMS5003;69762;54.858;73.420;2023-05-07T06:46:46;5.25;5.00;4.00
80420;PMS5003;69762;54.858;73.420;2023-05-07T06:49:13;6.00;5.00;4.00
80420;PMS5003;69762;54.858;73.420;2023-05-07T06:51:40;6.00;5.50;4.00
80420;PMS5003;69762;54.858;73.420;2023-05-07T06:54:06;8.00;7.00;5.00
80420;PMS5003;69762;54.858;73.420;2023-05-07T06:56:35;6.50;5.75;3.00
80420;PMS5003;69762;54.858;73.420;2023-05-07T06:59:03;7.00;6.00;4.00
80420;PMS5003;69762;54.858;73.420;2023-05-07T07:01:34;7.00;6.00;4.00
80420;PMS5003;69762;54.858;73.420;2023-05-07T07:04:01;6.00;6.00;4.00
80420;PMS5003;69762;54.858;73.420;2023-05-07T07:06:29;6.00;5.25;4.00
80420;PMS5003;69762;54.858;73.420;2023-05-07T07:08:58;6.00;6.00;4.00
80420;PMS5003;69762;54.858;73.420;2023-05-07T07:11:24;8.00;7.00;5.00
80420;PMS5003;69762;54.858;73.420;2023-05-07T07:13:50;6.00;5.00;4.00
80420;PMS5003;69762;54.858;73.420;2023-05-07T07:16:17;6.50;6.25;4.25
80420;PMS5003;69762;54.858;73.420;2023-05-07T07:18:45;5.00;5.00;4.00
80420;PMS5003;69762;54.858;73.420;2023-05-07T07:21:12;6.00;5.00;4.00
80420;PMS5003;69762;54.858;73.420;2023-05-07T07:23:38;6.00;6.00;5.00
80420;PMS5003;69762;54.858;73.420;2023-05-07T07:26:04;9.00;9.00;7.50
80420;PMS5003;69762;54.858;73.420;2023-05-07T07:28:32;5.75;5.00;4.00
80420;PMS5003;69762;54.858;73.420;2023-05-07T07:30:58;11.25;10.00;7.00
80420;PMS5003;69762;54.858;73.420;2023-05-07T07:33:25;6.00;6.00;4.00
80420;PMS5003;69762;54.858;73.420;2023-05-07T07:35:51;8.00;7.00;5.00
80420;PMS5003;69762;54.858;73.420;2023-05-07T07:38:17;6.00;5.00;4.00
80420;PMS5003;69762;54.858;73.420;2023-05-07T07:40:44;5.00;4.00;3.00
80420;PMS5003;69762;54.858;73.420;2023-05-07T07:43:13;5.00;5.00;4.00
80420;PMS5003;69762;54.858;73.420;2023-05-07T07:45:40;6.00;6.00;5.00
80420;PMS5003;69762;54.858;73.420;2023-05-07T07:48:06;8.25;8.00;6.00
80420;PMS5003;69762;54.858;73.420;2023-05-07T07:50:36;5.50;5.00;5.00
80420;PMS5003;69762;54.858;73.420;2023-05-07T07:53:03;4.50;4.25;3.00
80420;PMS5003;69762;54.858;73.420;2023-05-07T07:55:29;7.00;6.00;5.00
80420;PMS5003;69762;54.858;73.420;2023-05-07T07:57:57;9.75;8.75;6.00
80420;PMS5003;69762;54.858;73.420;2023-05-07T08:00:24;7.00;7.00;5.00
80420;PMS5003;69762;54.858;73.420;2023-05-07T08:02:54;6.25;6.00;5.00
80420;PMS5003;69762;54.858;73.420;2023-05-07T08:05:25;5.00;5.00;3.25
80420;PMS5003;69762;54.858;73.420;2023-05-07T08:07:52;8.00;7.00;5.00
80420;PMS5003;69762;54.858;73.420;2023-05-07T08:10:24;5.00;4.00;3.00
80420;PMS5003;69762;54.858;73.420;2023-05-07T08:12:56;16.00;14.00;10.00
80420;PMS5003;69762;54.858;73.420;2023-05-07T08:15:23;22.50;20.75;15.50
80420;PMS5003;69762;54.858;73.420;2023-05-07T08:17:50;11.00;9.00;6.25
80420;PMS5003;69762;54.858;73.420;2023-05-07T08:20:17;10.00;9.00;6.00
80420;PMS5003;69762;54.858;73.420;2023-05-07T08:22:43;10.75;9.75;7.75
80420;PMS5003;69762;54.858;73.420;2023-05-07T08:25:09;8.00;7.00;5.00
80420;PMS5003;69762;54.858;73.420;2023-05-07T08:27:35;6.00;6.00;4.00
80420;PMS5003;69762;54.858;73.420;2023-05-07T08:30:02;5.00;5.00;3.75
80420;PMS5003;69762;54.858;73.420;2023-05-07T08:32:29;9.00;8.25;7.00
80420;PMS5003;69762;54.858;73.420;2023-05-07T08:34:59;8.00;7.00;5.00
80420;PMS5003;69762;54.858;73.420;2023-05-07T08:37:26;7.75;7.00;4.25
80420;PMS5003;69762;54.858;73.420;2023-05-07T08:39:52;9.25;8.00;5.50
80420;PMS5003;69762;54.858;73.420;2023-05-07T08:42:23;12.50;10.75;7.00
80420;PMS5003;69762;54.858;73.420;2023-05-07T08:44:51;8.50;8.00;6.00
80420;PMS5003;69762;54.858;73.420;2023-05-07T08:47:22;6.00;5.00;4.00
80420;PMS5003;69762;54.858;73.420;2023-05-07T08:49:50;15.00;13.00;8.50
80420;PMS5003;69762;54.858;73.420;2023-05-07T08:52:17;15.00;14.00;11.00
80420;PMS5003;69762;54.858;73.420;2023-05-07T08:54:45;6.00;6.00;5.00
80420;PMS5003;69762;54.858;73.420;2023-05-07T08:57:11;6.00;5.25;4.00
80420;PMS5003;69762;54.858;73.420;2023-05-07T08:59:38;5.50;5.00;4.00
80420;PMS5003;69762;54.858;73.420;2023-05-07T09:02:05;5.25;5.00;4.00
80420;PMS5003;69762;54.858;73.420;2023-05-07T09:04:33;6.00;5.00;4.00
80420;PMS5003;69762;54.858;73.420;2023-05-07T09:06:59;21.00;18.00;11.00
80420;PMS5003;69762;54.858;73.420;2023-05-07T09:09:33;6.00;6.00;4.75
80420;PMS5003;69762;54.858;73.420;2023-05-07T09:12:00;7.00;6.00;4.00
80420;PMS5003;69762;54.858;73.420;2023-05-07T09:14:31;8.50;7.00;5.00
80420;PMS5003;69762;54.858;73.420;2023-05-07T09:16:57;7.00;7.00;5.00
80420;PMS5003;69762;54.858;73.420;2023-05-07T09:19:24;7.00;6.00;5.00
80420;PMS5003;69762;54.858;73.420;2023-05-07T09:22:04;6.00;6.00;5.00
80420;PMS5003;69762;54.858;73.420;2023-05-07T09:24:40;6.50;6.00;4.00
80420;PMS5003;69762;54.858;73.420;2023-05-07T09:27:09;7.00;7.00;5.00
80420;PMS5003;69762;54.858;73.420;2023-05-07T09:29:40;8.00;7.00;5.00
80420;PMS5003;69762;54.858;73.420;2023-05-07T09:32:07;6.00;6.00;4.00
80420;PMS5003;69762;54.858;73.420;2023-05-07T09:34:35;8.00;7.00;5.00
80420;PMS5003;69762;54.858;73.420;2023-05-07T09:37:02;8.00;7.00;4.00
80420;PMS5003;69762;54.858;73.420;2023-05-07T09:39:45;7.25;6.25;5.00
80420;PMS5003;69762;54.858;73.420;2023-05-07T09:42:13;9.00;8.25;6.75
80420;PMS5003;69762;54.858;73.420;2023-05-07T09:44:43;7.00;6.00;4.75
80420;PMS5003;69762;54.858;73.420;2023-05-07T09:47:20;6.50;6.00;5.00
80420;PMS5003;69762;54.858;73.420;2023-05-07T09:49:53;6.00;6.00;4.00
80420;PMS5003;69762;54.858;73.420;2023-05-07T09:52:21;6.00;5.00;4.00
80420;PMS5003;69762;54.858;73.420;2023-05-07T09:54:51;9.00;8.00;5.00
80420;PMS5003;69762;54.858;73.420;2023-05-07T09:57:21;14.75;13.25;9.00
80420;PMS5003;69762;54.858;73.420;2023-05-07T09:59:52;6.00;5.00;4.00
80420;PMS5003;69762;54.858;73.420;2023-05-07T10:02:19;9.00;8.00;6.00
80420;PMS5003;69762;54.858;73.420;2023-05-07T10:04:50;6.00;5.00;4.00
80420;PMS5003;69762;54.858;73.420;2023-05-07T10:07:21;5.00;4.00;3.00
80420;PMS5003;69762;54.858;73.420;2023-05-07T10:09:51;13.25;11.00;6.50
80420;PMS5003;69762;54.858;73.420;2023-05-07T10:12:25;5.00;5.00;4.00
80420;PMS5003;69762;54.858;73.420;2023-05-07T10:14:52;7.00;6.00;4.00
80420;PMS5003;69762;54.858;73.420;2023-05-07T10:17:18;8.00;7.00;6.00
80420;PMS5003;69762;54.858;73.420;2023-05-07T10:19:45;9.00;9.00;6.00
80420;PMS5003;69762;54.858;73.420;2023-05-07T10:22:12;5.00;5.00;4.00
80420;PMS5003;69762;54.858;73.420;2023-05-07T10:24:43;6.00;5.00;4.00
80420;PMS5003;69762;54.858;73.420;2023-05-07T10:27:15;8.00;7.00;5.00
80420;PMS5003;69762;54.858;73.420;2023-05-07T10:29:49;10.00;9.00;5.75
80420;PMS5003;69762;54.858;73.420;2023-05-07T10:34:54;8.75;8.00;5.00
80420;PMS5003;69762;54.858;73.420;2023-05-07T10:37:22;5.75;5.00;3.75
80420;PMS5003;69762;54.858;73.420;2023-05-07T10:39:49;6.00;6.00;5.00
80420;PMS5003;69762;54.858;73.420;2023-05-07T10:42:16;7.00;7.00;5.00
80420;PMS5003;69762;54.858;73.420;2023-05-07T10:44:47;7.00;6.00;5.00
80420;PMS5003;69762;54.858;73.420;2023-05-07T10:47:21;10.00;9.00;6.00
80420;PMS5003;69762;54.858;73.420;2023-05-07T10:52:24;9.00;7.75;5.00
80420;PMS5003;69762;54.858;73.420;2023-05-07T11:00:48;11.00;9.00;6.00
80420;PMS5003;69762;54.858;73.420;2023-05-07T11:03:27;7.00;6.00;5.00
80420;PMS5003;69762;54.858;73.420;2023-05-07T11:06:10;8.00;7.00;5.00
80420;PMS5003;69762;54.858;73.420;2023-05-07T11:08:58;8.00;7.75;7.00
80420;PMS5003;69762;54.858;73.420;2023-05-07T11:11:44;9.00;8.00;6.00
80420;PMS5003;69762;54.858;73.420;2023-05-07T11:14:34;8.25;8.00;5.00
80420;PMS5003;69762;54.858;73.420;2023-05-07T11:17:08;9.00;8.00;5.00
80420;PMS5003;69762;54.858;73.420;2023-05-07T11:19:50;8.00;8.00;5.00
80420;PMS5003;69762;54.858;73.420;2023-05-07T11:25:05;13.75;12.00;9.00
80420;PMS5003;69762;54.858;73.420;2023-05-07T11:27:33;12.00;11.00;8.25
80420;PMS5003;69762;54.858;73.420;2023-05-07T11:29:59;11.50;10.75;8.00
80420;PMS5003;69762;54.858;73.420;2023-05-07T11:32:29;14.00;11.25;8.00
80420;PMS5003;69762;54.858;73.420;2023-05-07T11:34:56;9.00;8.00;6.00
80420;PMS5003;69762;54.858;73.420;2023-05-07T11:37:24;19.25;16.00;10.75
80420;PMS5003;69762;54.858;73.420;2023-05-07T11:40:07;10.00;9.00;6.00
80420;PMS5003;69762;54.858;73.420;2023-05-07T11:42:34;13.00;12.00;8.00
80420;PMS5003;69762;54.858;73.420;2023-05-07T11:45:01;13.00;11.00;8.50
80420;PMS5003;69762;54.858;73.420;2023-05-07T11:47:30;13.00;12.00;9.00
80420;PMS5003;69762;54.858;73.420;2023-05-07T11:49:56;7.25;7.00;6.00
80420;PMS5003;69762;54.858;73.420;2023-05-07T11:52:23;15.00;13.00;9.00
80420;PMS5003;69762;54.858;73.420;2023-05-07T11:54:50;25.00;20.00;13.00
80420;PMS5003;69762;54.858;73.420;2023-05-07T11:57:16;14.75;12.00;8.00
80420;PMS5003;69762;54.858;73.420;2023-05-07T11:59:43;13.25;11.50;8.00
80420;PMS5003;69762;54.858;73.420;2023-05-07T12:02:15;13.00;12.00;9.00
80420;PMS5003;69762;54.858;73.420;2023-05-07T12:04:41;15.50;13.50;10.00
80420;PMS5003;69762;54.858;73.420;2023-05-07T12:07:11;14.00;12.00;8.00
80420;PMS5003;69762;54.858;73.420;2023-05-07T12:09:37;17.75;16.00;10.25
80420;PMS5003;69762;54.858;73.420;2023-05-07T12:12:03;12.00;10.00;7.00
80420;PMS5003;69762;54.858;73.420;2023-05-07T12:14:30;17.00;12.25;8.00
80420;PMS5003;69762;54.858;73.420;2023-05-07T12:17:01;12.00;10.00;7.00
80420;PMS5003;69762;54.858;73.420;2023-05-07T12:19:31;16.75;15.75;12.25
80420;PMS5003;69762;54.858;73.420;2023-05-07T12:21:57;12.00;12.00;10.00
80420;PMS5003;69762;54.858;73.420;2023-05-07T12:24:24;16.00;13.25;9.25
80420;PMS5003;69762;54.858;73.420;2023-05-07T12:26:50;19.00;16.00;11.00
80420;PMS5003;69762;54.858;73.420;2023-05-07T12:29:16;17.00;15.50;10.00
80420;PMS5003;69762;54.858;73.420;2023-05-07T12:31:43;16.00;15.00;11.00
80420;PMS5003;69762;54.858;73.420;2023-05-07T12:34:10;22.00;20.00;13.00
80420;PMS5003;69762;54.858;73.420;2023-05-07T12:36:37;20.00;18.00;12.00
80420;PMS5003;69762;54.858;73.420;2023-05-07T12:39:05;20.25;18.50;12.00
80420;PMS5003;69762;54.858;73.420;2023-05-07T12:41:35;20.50;18.75;13.00
80420;PMS5003;69762;54.858;73.420;2023-05-07T12:44:01;24.50;21.25;15.25
80420;PMS5003;69762;54.858;73.420;2023-05-07T12:46:29;27.50;24.75;16.25
80420;PMS5003;69762;54.858;73.420;2023-05-07T12:48:57;17.00;15.00;11.00
80420;PMS5003;69762;54.858;73.420;2023-05-07T12:51:24;22.25;19.00;11.00
80420;PMS5003;69762;54.858;73.420;2023-05-07T12:53:50;28.00;24.00;14.00
80420;PMS5003;69762;54.858;73.420;2023-05-07T12:56:21;13.00;11.00;8.00
80420;PMS5003;69762;54.858;73.420;2023-05-07T12:58:48;11.00;10.00;7.75
80420;PMS5003;69762;54.858;73.420;2023-05-07T13:01:14;9.50;9.25;8.00
80420;PMS5003;69762;54.858;73.420;2023-05-07T13:03:47;11.00;10.00;8.00
80420;PMS5003;69762;54.858;73.420;2023-05-07T13:06:14;11.00;10.00;7.00
80420;PMS5003;69762;54.858;73.420;2023-05-07T13:08:40;14.00;13.00;9.00
80420;PMS5003;69762;54.858;73.420;2023-05-07T13:11:09;22.00;19.75;12.25
80420;PMS5003;69762;54.858;73.420;2023-05-07T13:13:36;20.00;17.00;11.25
80420;PMS5003;69762;54.858;73.420;2023-05-07T13:16:02;18.00;16.00;11.00
80420;PMS5003;69762;54.858;73.420;2023-05-07T13:18:29;19.75;17.50;11.75
80420;PMS5003;69762;54.858;73.420;2023-05-07T13:20:56;20.00;18.00;12.00
80420;PMS5003;69762;54.858;73.420;2023-05-07T13:23:22;28.00;24.50;17.00
80420;PMS5003;69762;54.858;73.420;2023-05-07T13:25:48;27.00;23.00;15.00
80420;PMS5003;69762;54.858;73.420;2023-05-07T13:28:16;25.25;22.25;15.00
80420;PMS5003;69762;54.858;73.420;2023-05-07T13:30:42;30.00;25.00;17.00
80420;PMS5003;69762;54.858;73.420;2023-05-07T13:33:10;43.00;36.00;23.25
80420;PMS5003;69762;54.858;73.420;2023-05-07T13:35:37;60.25;48.00;30.75
80420;PMS5003;69762;54.858;73.420;2023-05-07T13:38:04;68.25;53.00;32.00
80420;PMS5003;69762;54.858;73.420;2023-05-07T13:40:31;52.25;42.75;26.25
80420;PMS5003;69762;54.858;73.420;2023-05-07T13:42:58;55.00;41.00;23.50
80420;PMS5003;69762;54.858;73.420;2023-05-07T13:45:25;63.25;51.75;33.75
80420;PMS5003;69762;54.858;73.420;2023-05-07T13:47:52;64.00;52.00;34.75
80420;PMS5003;69762;54.858;73.420;2023-05-07T13:50:19;67.00;53.25;34.25
80420;PMS5003;69762;54.858;73.420;2023-05-07T13:52:45;54.00;44.00;27.00
80420;PMS5003;69762;54.858;73.420;2023-05-07T13:55:19;57.00;45.25;28.00
80420;PMS5003;69762;54.858;73.420;2023-05-07T13:57:46;53.00;42.75;25.00
80420;PMS5003;69762;54.858;73.420;2023-05-07T14:00:13;90.25;74.00;33.00
80420;PMS5003;69762;54.858;73.420;2023-05-07T14:02:42;114.00;92.00;42.00
80420;PMS5003;69762;54.858;73.420;2023-05-07T14:05:09;155.75;129.50;67.00
80420;PMS5003;69762;54.858;73.420;2023-05-07T14:07:36;168.50;145.25;80.75
80420;PMS5003;69762;54.858;73.420;2023-05-07T14:10:02;103.75;92.75;56.00